Time;durP1;ratioP1;P1;durP2;ratioP2;P2;SDS_P1;SDS_P2;PMS_P1;PMS_P2;Temp;Humidity;BMP_temperature;BMP_pressure;BME280_temperature;BME280_humidity;BME280_pressure;Samples;Min_cycle;Max_cycle;Signal;HPM_P1;HPM_P2
2021/12/30 00:01:06;;;;;;;12.70;12.30;;;14.40;99.90;;;;;;5051559;28;20973;-77
2021/12/30 00:03:33;;;;;;;12.90;12.40;;;14.50;99.90;;;;;;5051412;28;20452;-78
2021/12/30 00:06:00;;;;;;;12.90;12.50;;;14.50;99.90;;;;;;5051365;28;20828;-77
2021/12/30 00:08:26;;;;;;;12.97;12.50;;;14.40;99.90;;;;;;5051244;28;20894;-78
2021/12/30 00:10:54;;;;;;;13.00;12.47;;;14.40;99.90;;;;;;5051283;28;20502;-77
2021/12/30 00:13:22;;;;;;;13.00;12.50;;;14.30;99.90;;;;;;5051338;28;20457;-78
2021/12/30 00:15:49;;;;;;;13.70;13.20;;;14.30;99.90;;;;;;5051221;28;20452;-76
2021/12/30 00:18:16;;;;;;;12.93;12.53;;;14.30;99.90;;;;;;5051307;28;20451;-77
2021/12/30 00:20:43;;;;;;;13.50;13.07;;;14.00;99.90;;;;;;5051201;28;20452;-76
2021/12/30 00:23:10;;;;;;;13.07;12.67;;;14.00;99.90;;;;;;5050778;28;20622;-76
2021/12/30 00:25:40;;;;;;;13.10;12.70;;;14.00;99.90;;;;;;5050814;28;20922;-75
2021/12/30 00:28:09;;;;;;;12.90;12.40;;;14.00;99.90;;;;;;5051015;28;20460;-77
2021/12/30 00:30:37;;;;;;;12.63;12.23;;;14.00;99.90;;;;;;5051123;28;20455;-75
2021/12/30 00:33:05;;;;;;;12.30;11.90;;;14.10;99.90;;;;;;5050986;28;20509;-76
2021/12/30 00:35:32;;;;;;;12.40;11.90;;;14.20;99.90;;;;;;5050814;28;20460;-76
2021/12/30 00:38:00;;;;;;;12.30;11.90;;;14.30;99.90;;;;;;5050688;28;20535;-76
2021/12/30 00:40:27;;;;;;;12.70;12.20;;;14.40;99.90;;;;;;5050681;28;20459;-76
2021/12/30 00:42:53;;;;;;;12.60;12.20;;;14.40;99.90;;;;;;5050533;28;20930;-76
2021/12/30 00:45:20;;;;;;;12.30;11.90;;;14.50;99.90;;;;;;5051023;28;20483;-76
2021/12/30 00:47:49;;;;;;;12.10;11.60;;;14.50;99.90;;;;;;5050422;28;20576;-77
2021/12/30 00:50:16;;;;;;;12.17;11.77;;;14.50;99.90;;;;;;5050785;28;20455;-76
2021/12/30 00:52:43;;;;;;;12.07;11.67;;;14.50;99.90;;;;;;5050775;28;20452;-77
2021/12/30 00:55:11;;;;;;;14.43;13.50;;;14.50;99.90;;;;;;5050497;28;20701;-76
2021/12/30 00:57:38;;;;;;;12.40;12.00;;;14.40;99.90;;;;;;5050429;28;20459;-75
2021/12/30 01:00:07;;;;;;;13.10;12.60;;;14.40;99.90;;;;;;5050441;28;20450;-75
2021/12/30 01:02:34;;;;;;;12.70;12.30;;;14.30;99.90;;;;;;5050690;28;20452;-75
2021/12/30 01:05:02;;;;;;;12.50;12.00;;;14.30;99.90;;;;;;5050371;28;20483;-75
2021/12/30 01:07:29;;;;;;;12.30;11.90;;;14.20;99.90;;;;;;5050505;28;20931;-75
2021/12/30 01:09:55;;;;;;;12.40;11.90;;;14.20;99.90;;;;;;5050377;28;20447;-75
2021/12/30 01:12:23;;;;;;;12.97;12.37;;;14.10;99.90;;;;;;5050107;28;20458;-76
2021/12/30 01:14:50;;;;;;;12.57;12.03;;;14.00;99.90;;;;;;5050400;28;20444;-75
2021/12/30 01:17:23;;;;;;;12.00;11.60;;;14.00;99.90;;;;;;5050388;28;20491;-75
2021/12/30 01:19:51;;;;;;;12.70;12.30;;;14.10;99.90;;;;;;5050730;28;20448;-74
2021/12/30 01:22:21;;;;;;;12.30;11.90;;;14.00;99.90;;;;;;5050665;28;20474;-75
2021/12/30 01:24:48;;;;;;;12.47;11.97;;;14.00;99.90;;;;;;5050225;28;20483;-74
2021/12/30 01:27:16;;;;;;;11.90;11.50;;;14.00;99.90;;;;;;5050506;28;20444;-75
2021/12/30 01:29:43;;;;;;;12.50;12.10;;;14.00;99.90;;;;;;5050282;28;20454;-75
2021/12/30 01:32:10;;;;;;;12.40;11.90;;;14.00;99.90;;;;;;5050681;28;20716;-75
2021/12/30 01:34:37;;;;;;;14.03;13.37;;;13.90;99.90;;;;;;5049793;28;20451;-75
2021/12/30 01:37:05;;;;;;;12.03;11.53;;;13.90;99.90;;;;;;5050309;28;20455;-75
2021/12/30 01:39:36;;;;;;;12.80;11.77;;;14.10;99.90;;;;;;5050143;28;20989;-75
2021/12/30 01:42:04;;;;;;;12.13;11.73;;;14.10;99.90;;;;;;5050202;28;20452;-75
2021/12/30 01:44:32;;;;;;;12.57;12.17;;;14.00;99.90;;;;;;5050196;28;20817;-75
2021/12/30 01:46:59;;;;;;;12.73;12.23;;;14.10;99.90;;;;;;5049586;28;20495;-75
2021/12/30 01:49:26;;;;;;;12.97;12.57;;;14.00;99.90;;;;;;5050283;28;20458;-75
2021/12/30 01:51:55;;;;;;;13.90;13.17;;;14.10;99.90;;;;;;5053821;28;20448;-78
2021/12/30 01:54:23;;;;;;;12.20;11.80;;;14.10;99.90;;;;;;5053731;28;20452;-77
2021/12/30 01:56:52;;;;;;;13.17;12.57;;;14.20;99.90;;;;;;5054024;28;20459;-75
2021/12/30 01:59:19;;;;;;;12.97;12.57;;;14.30;99.90;;;;;;5053669;28;20447;-74
2021/12/30 02:01:46;;;;;;;13.00;12.60;;;14.30;99.90;;;;;;5053691;28;20961;-74
2021/12/30 02:04:13;;;;;;;12.47;12.07;;;14.30;99.90;;;;;;5053479;28;20534;-74
2021/12/30 02:06:40;;;;;;;12.47;12.00;;;14.30;99.90;;;;;;5053629;28;20498;-75
2021/12/30 02:09:07;;;;;;;12.80;12.40;;;14.10;99.90;;;;;;5053431;28;20952;-75
2021/12/30 02:11:34;;;;;;;13.00;12.40;;;14.10;99.90;;;;;;5053919;28;20821;-75
2021/12/30 02:14:02;;;;;;;12.70;12.20;;;14.00;99.90;;;;;;5053272;28;20456;-75
2021/12/30 02:16:29;;;;;;;13.10;12.60;;;13.90;99.90;;;;;;5053433;28;20454;-75
2021/12/30 02:18:56;;;;;;;13.67;13.03;;;13.90;99.90;;;;;;5053269;28;20448;-75
2021/12/30 02:26:40;;;;;;;13.43;12.70;;;14.10;99.90;;;;;;5305927;22;20296;-72
2021/12/30 02:29:06;;;;;;;12.70;12.30;;;14.20;99.90;;;;;;5038024;28;20978;-72
2021/12/30 02:31:33;;;;;;;13.10;12.60;;;14.20;99.90;;;;;;5035762;28;20730;-72
2021/12/30 02:34:00;;;;;;;13.10;12.60;;;14.20;99.90;;;;;;5041896;28;20796;-72
2021/12/30 02:36:29;;;;;;;12.83;12.33;;;14.30;99.90;;;;;;5033305;28;20472;-72
2021/12/30 02:38:56;;;;;;;13.17;12.47;;;14.30;99.90;;;;;;5032961;28;20927;-72
2021/12/30 02:41:24;;;;;;;13.33;12.63;;;14.40;99.90;;;;;;5033127;28;20554;-72
2021/12/30 02:43:52;;;;;;;13.43;12.80;;;14.40;99.90;;;;;;5033243;28;20453;-72
2021/12/30 02:46:22;;;;;;;14.67;13.97;;;14.40;99.90;;;;;;5033388;28;20496;-73
2021/12/30 02:48:52;;;;;;;13.20;12.80;;;14.30;99.90;;;;;;5033171;28;20449;-72
2021/12/30 02:51:20;;;;;;;13.33;12.83;;;14.10;99.90;;;;;;5033289;28;20453;-73
2021/12/30 02:53:47;;;;;;;13.47;12.97;;;14.10;99.90;;;;;;5032954;28;20548;-72
2021/12/30 02:56:14;;;;;;;13.30;12.70;;;14.20;99.90;;;;;;5032991;28;20820;-72
2021/12/30 02:58:41;;;;;;;14.53;13.70;;;14.20;99.90;;;;;;5025102;28;20456;-73
2021/12/30 03:01:12;;;;;;;13.63;13.13;;;14.10;99.90;;;;;;5032778;28;20798;-72
2021/12/30 03:03:40;;;;;;;14.23;13.40;;;14.00;99.90;;;;;;5032969;28;20460;-72
2021/12/30 03:06:09;;;;;;;13.97;13.47;;;14.00;99.90;;;;;;5032995;28;20902;-72
2021/12/30 03:08:36;;;;;;;13.83;13.30;;;13.80;99.90;;;;;;5032842;28;20511;-72
2021/12/30 03:11:04;;;;;;;14.00;13.50;;;13.80;99.90;;;;;;5033003;28;20868;-73
2021/12/30 03:13:32;;;;;;;13.80;13.30;;;13.80;99.90;;;;;;5032584;28;20453;-72
2021/12/30 03:16:03;;;;;;;14.00;13.50;;;13.80;99.90;;;;;;5032717;28;20445;-73
2021/12/30 03:18:31;;;;;;;13.60;13.10;;;13.70;99.90;;;;;;5032559;28;20519;-72
2021/12/30 03:20:58;;;;;;;13.80;13.30;;;13.80;99.90;;;;;;5032601;28;20464;-73
2021/12/30 03:23:25;;;;;;;13.90;13.40;;;13.80;99.90;;;;;;5032416;28;20445;-72
2021/12/30 03:25:52;;;;;;;13.83;13.23;;;13.70;99.90;;;;;;5032395;28;20493;-72
2021/12/30 03:28:18;;;;;;;14.00;13.30;;;13.60;99.90;;;;;;5032574;28;20453;-72
2021/12/30 03:30:45;;;;;;;14.10;13.50;;;13.70;99.90;;;;;;5032276;28;20452;-72
2021/12/30 03:33:12;;;;;;;13.70;13.00;;;13.70;99.90;;;;;;5034373;28;20997;-72
2021/12/30 03:35:40;;;;;;;14.13;13.53;;;13.70;99.90;;;;;;5040498;28;20445;-72
2021/12/30 03:38:08;;;;;;;13.77;13.17;;;13.60;99.90;;;;;;5032122;28;20831;-72
2021/12/30 03:40:35;;;;;;;13.80;13.20;;;13.60;99.90;;;;;;5032359;28;20453;-71
2021/12/30 03:43:02;;;;;;;13.87;13.20;;;13.50;99.90;;;;;;5032317;28;20449;-72
2021/12/30 03:45:29;;;;;;;14.03;13.43;;;13.50;99.90;;;;;;5031656;28;20564;-72
2021/12/30 03:47:56;;;;;;;14.27;13.43;;;13.40;99.90;;;;;;5031843;28;20453;-72
2021/12/30 03:50:27;;;;;;;14.83;14.10;;;13.30;99.90;;;;;;5031766;28;20453;-72
2021/12/30 03:52:57;;;;;;;13.90;13.20;;;13.30;99.90;;;;;;5031818;28;20561;-72
2021/12/30 03:55:26;;;;;;;13.50;12.90;;;13.30;99.90;;;;;;5031830;28;20472;-72
2021/12/30 03:57:54;;;;;;;13.63;13.00;;;13.30;99.90;;;;;;5031655;28;20552;-72
2021/12/30 04:00:23;;;;;;;13.90;13.30;;;13.20;99.90;;;;;;5032036;28;20529;-72
2021/12/30 04:02:51;;;;;;;13.57;13.07;;;13.20;99.90;;;;;;5031740;28;20448;-73
2021/12/30 04:05:19;;;;;;;14.43;13.47;;;13.00;99.90;;;;;;5031740;28;20457;-72
2021/12/30 04:07:46;;;;;;;13.83;13.13;;;13.00;99.90;;;;;;5031762;28;20453;-72
2021/12/30 04:10:15;;;;;;;13.80;13.20;;;13.10;99.90;;;;;;5031354;28;20710;-72
2021/12/30 04:12:44;;;;;;;14.23;13.53;;;13.10;99.90;;;;;;5031112;28;20475;-72
2021/12/30 04:15:11;;;;;;;13.20;12.70;;;13.20;99.90;;;;;;5031603;28;20452;-72
2021/12/30 04:17:38;;;;;;;13.80;13.13;;;13.30;99.90;;;;;;5031366;28;20456;-72
2021/12/30 04:20:07;;;;;;;13.87;13.10;;;13.30;99.90;;;;;;5031379;28;20448;-72
2021/12/30 04:22:34;;;;;;;13.90;13.20;;;13.30;99.90;;;;;;5031524;28;20463;-72
2021/12/30 04:25:02;;;;;;;14.73;13.93;;;13.30;99.90;;;;;;5030849;28;20922;-74
2021/12/30 04:27:30;;;;;;;14.00;13.50;;;13.30;99.90;;;;;;5031375;28;20831;-73
2021/12/30 04:29:57;;;;;;;14.43;13.83;;;13.20;99.90;;;;;;5031075;28;20483;-74
2021/12/30 04:32:23;;;;;;;14.50;13.97;;;13.20;99.90;;;;;;5031082;28;20961;-73
2021/12/30 04:34:50;;;;;;;13.77;13.17;;;13.20;99.90;;;;;;5037241;28;20518;-72
2021/12/30 04:37:17;;;;;;;13.47;12.93;;;13.10;99.90;;;;;;5036102;28;20503;-73
2021/12/30 04:39:44;;;;;;;14.00;13.47;;;13.20;99.90;;;;;;5030940;28;20464;-72
2021/12/30 04:42:10;;;;;;;13.63;13.10;;;13.30;99.90;;;;;;5030753;28;20452;-73
2021/12/30 04:44:38;;;;;;;14.30;13.80;;;13.30;99.90;;;;;;5030995;28;20524;-73
2021/12/30 04:47:06;;;;;;;14.20;13.60;;;13.30;99.90;;;;;;5031133;28;20982;-73
2021/12/30 04:49:33;;;;;;;14.10;13.40;;;13.30;99.90;;;;;;5031313;28;20449;-73
2021/12/30 04:52:00;;;;;;;13.47;13.03;;;13.30;99.90;;;;;;5031010;28;20449;-72
2021/12/30 04:54:26;;;;;;;13.67;13.17;;;13.40;99.90;;;;;;5030425;28;20935;-72
2021/12/30 04:56:53;;;;;;;14.23;13.67;;;13.40;99.90;;;;;;5030655;28;20448;-73
2021/12/30 04:59:20;;;;;;;13.67;13.27;;;13.50;99.90;;;;;;5030824;28;20463;-73
2021/12/30 05:01:48;;;;;;;13.83;13.33;;;13.40;99.90;;;;;;5030811;28;20453;-73
2021/12/30 05:04:15;;;;;;;13.87;13.47;;;13.40;99.90;;;;;;5030741;28;20453;-72
2021/12/30 05:06:42;;;;;;;13.60;13.10;;;13.50;99.90;;;;;;5030315;28;20489;-73
2021/12/30 05:09:09;;;;;;;14.70;14.10;;;13.40;99.90;;;;;;5030548;28;20453;-73
2021/12/30 05:11:36;;;;;;;13.93;13.43;;;13.50;99.90;;;;;;5030696;28;20505;-72
2021/12/30 05:14:03;;;;;;;14.00;13.43;;;13.50;99.90;;;;;;5030987;28;20453;-73
2021/12/30 05:16:30;;;;;;;14.30;13.80;;;13.50;99.90;;;;;;5030404;28;20464;-72
2021/12/30 05:18:58;;;;;;;14.20;13.70;;;13.50;99.90;;;;;;5030388;28;20452;-72
2021/12/30 05:21:25;;;;;;;14.13;13.63;;;13.50;99.90;;;;;;5030526;28;20456;-73
2021/12/30 05:23:52;;;;;;;14.63;14.13;;;13.50;99.90;;;;;;5030373;28;20476;-72
2021/12/30 05:26:19;;;;;;;14.20;13.70;;;13.60;99.90;;;;;;5033831;28;21032;-72
2021/12/30 05:28:46;;;;;;;14.10;13.60;;;13.60;99.90;;;;;;5034412;28;20448;-72
2021/12/30 05:31:13;;;;;;;12.70;12.20;;;13.60;99.90;;;;;;5034362;28;20824;-71
2021/12/30 05:33:40;;;;;;;14.30;13.80;;;13.60;99.90;;;;;;5034358;28;20456;-71
2021/12/30 05:36:08;;;;;;;14.80;14.30;;;13.60;99.90;;;;;;5034645;28;20456;-71
2021/12/30 05:38:35;;;;;;;14.33;13.73;;;13.70;99.90;;;;;;5034424;28;20445;-72
2021/12/30 05:41:01;;;;;;;13.30;12.80;;;13.70;99.90;;;;;;5034382;28;20449;-72
2021/12/30 05:43:28;;;;;;;13.73;13.33;;;13.60;99.90;;;;;;5034199;28;20448;-72
2021/12/30 05:45:55;;;;;;;14.07;13.57;;;13.60;99.90;;;;;;5034391;28;20534;-71
2021/12/30 05:48:22;;;;;;;14.03;13.53;;;13.60;99.90;;;;;;5034186;28;20452;-73
2021/12/30 05:50:48;;;;;;;14.23;13.63;;;13.70;99.90;;;;;;5034441;28;20449;-72
2021/12/30 05:53:16;;;;;;;13.73;13.33;;;13.70;99.90;;;;;;5033975;28;20463;-73
2021/12/30 05:55:43;;;;;;;14.00;13.50;;;13.70;99.90;;;;;;5034216;28;20460;-72
2021/12/30 05:58:10;;;;;;;14.27;13.73;;;13.60;99.90;;;;;;5033778;28;20536;-72
2021/12/30 06:00:37;;;;;;;14.13;13.63;;;13.70;99.90;;;;;;5034069;28;20933;-73
2021/12/30 06:03:03;;;;;;;14.37;13.87;;;13.60;99.90;;;;;;5034274;28;20448;-73
2021/12/30 06:05:31;;;;;;;14.93;14.40;;;13.60;99.90;;;;;;5033849;28;20453;-71
2021/12/30 06:07:57;;;;;;;14.57;14.07;;;13.70;99.90;;;;;;5033551;28;20480;-73
2021/12/30 06:10:25;;;;;;;15.07;14.57;;;13.80;99.90;;;;;;5033719;28;20926;-72
2021/12/30 06:12:52;;;;;;;15.03;14.53;;;13.70;99.90;;;;;;5033867;28;20853;-72
2021/12/30 06:15:19;;;;;;;14.70;14.10;;;13.60;99.90;;;;;;5033930;28;20449;-72
2021/12/30 06:17:46;;;;;;;14.63;14.13;;;13.50;99.90;;;;;;5033616;28;20451;-72
2021/12/30 06:20:14;;;;;;;14.70;14.20;;;13.50;99.90;;;;;;5033640;28;20476;-72
2021/12/30 06:22:42;;;;;;;15.23;14.63;;;13.40;99.90;;;;;;5033503;28;20453;-72
2021/12/30 06:25:10;;;;;;;14.97;14.47;;;13.40;99.90;;;;;;5033335;28;20480;-72
2021/12/30 06:27:38;;;;;;;16.50;15.80;;;13.50;99.90;;;;;;5033595;28;20523;-73
2021/12/30 06:30:06;;;;;;;22.70;21.80;;;13.40;99.90;;;;;;5033509;28;20456;-73
2021/12/30 06:32:33;;;;;;;23.47;22.47;;;13.40;99.90;;;;;;5033413;28;20515;-73
2021/12/30 06:35:00;;;;;;;24.63;23.53;;;13.30;99.90;;;;;;5032904;28;20445;-75
2021/12/30 06:37:27;;;;;;;23.90;22.90;;;13.20;99.90;;;;;;5033255;28;20498;-73
2021/12/30 06:39:53;;;;;;;23.63;22.73;;;13.10;99.90;;;;;;5033192;28;20460;-72
2021/12/30 06:42:20;;;;;;;24.13;22.90;;;13.10;99.90;;;;;;5033092;28;20461;-74
2021/12/30 06:44:48;;;;;;;24.90;23.90;;;13.00;99.90;;;;;;5033088;28;20449;-74
2021/12/30 06:47:15;;;;;;;25.43;24.20;;;13.00;99.90;;;;;;5033074;28;20489;-75
2021/12/30 06:49:42;;;;;;;24.20;23.20;;;13.00;99.90;;;;;;5032952;28;20783;-75
2021/12/30 06:52:11;;;;;;;24.27;23.27;;;12.90;99.90;;;;;;5032935;28;20461;-74
2021/12/30 06:54:39;;;;;;;25.30;24.10;;;13.00;99.90;;;;;;5032978;28;20457;-74
2021/12/30 06:57:06;;;;;;;24.90;23.90;;;12.90;99.90;;;;;;5033168;28;20453;-74
2021/12/30 06:59:35;;;;;;;25.77;24.77;;;13.00;99.90;;;;;;5033051;28;20445;-73
2021/12/30 07:02:04;;;;;;;26.10;25.00;;;13.00;99.90;;;;;;5032773;28;20552;-73
2021/12/30 07:04:31;;;;;;;26.47;25.40;;;13.00;99.90;;;;;;5032838;28;20453;-74
2021/12/30 07:06:58;;;;;;;26.07;24.97;;;13.00;99.90;;;;;;5032652;28;20998;-73
2021/12/30 07:09:25;;;;;;;25.60;24.60;;;13.00;99.90;;;;;;5032830;28;20456;-73
2021/12/30 07:11:52;;;;;;;25.00;23.90;;;13.00;99.90;;;;;;5033040;28;20459;-74
2021/12/30 07:14:19;;;;;;;25.10;24.10;;;13.00;99.90;;;;;;5032981;28;20802;-72
2021/12/30 07:16:46;;;;;;;25.83;24.73;;;13.00;99.90;;;;;;5032672;28;20456;-72
2021/12/30 07:19:15;;;;;;;26.53;25.43;;;13.00;99.90;;;;;;5032502;28;20460;-74
2021/12/30 07:21:42;;;;;;;27.40;26.20;;;13.10;99.90;;;;;;5032540;28;20449;-74
2021/12/30 07:24:09;;;;;;;26.70;25.60;;;13.00;99.90;;;;;;5032399;28;20889;-73
2021/12/30 07:26:36;;;;;;;26.53;25.43;;;13.10;99.90;;;;;;5032389;28;20842;-73
2021/12/30 07:29:05;;;;;;;26.20;25.20;;;13.10;99.90;;;;;;5032725;28;20460;-74
2021/12/30 07:31:32;;;;;;;27.17;25.97;;;13.20;99.90;;;;;;5032573;28;20449;-73
2021/12/30 07:33:59;;;;;;;28.70;27.50;;;13.20;99.90;;;;;;5032201;28;20457;-74
2021/12/30 07:36:27;;;;;;;27.30;26.10;;;13.20;99.90;;;;;;5032238;28;20506;-74
2021/12/30 07:38:54;;;;;;;28.50;27.00;;;13.20;99.90;;;;;;5031947;28;20453;-74
2021/12/30 07:41:20;;;;;;;25.97;24.90;;;13.20;99.90;;;;;;5032301;28;20441;-73
2021/12/30 07:43:47;;;;;;;26.50;25.40;;;13.30;99.90;;;;;;5032409;28;20547;-74
2021/12/30 07:46:14;;;;;;;26.70;25.60;;;13.30;99.90;;;;;;5032082;28;20446;-75
2021/12/30 07:48:41;;;;;;;26.90;25.70;;;13.30;99.90;;;;;;5031160;28;20452;-75
2021/12/30 07:51:07;;;;;;;27.60;26.40;;;13.30;99.90;;;;;;5031899;28;20449;-74
2021/12/30 07:53:37;;;;;;;28.53;27.23;;;13.40;99.90;;;;;;5031937;28;20465;-74
2021/12/30 07:56:04;;;;;;;27.40;26.30;;;13.40;99.90;;;;;;5032204;28;20511;-74
2021/12/30 07:58:31;;;;;;;26.77;25.67;;;13.40;99.90;;;;;;5032102;28;20815;-75
2021/12/30 08:00:57;;;;;;;25.70;24.70;;;13.40;99.90;;;;;;5031899;28;20453;-75
2021/12/30 08:03:24;;;;;;;26.93;25.63;;;13.40;99.90;;;;;;5031400;28;20441;-74
2021/12/30 08:05:51;;;;;;;26.53;25.43;;;13.40;99.90;;;;;;5031833;28;20876;-74
2021/12/30 08:08:18;;;;;;;26.27;25.17;;;13.40;99.90;;;;;;5031439;28;20476;-74
2021/12/30 08:10:46;;;;;;;25.97;24.80;;;13.50;99.90;;;;;;5031460;28;20449;-75
2021/12/30 08:13:13;;;;;;;26.13;25.03;;;13.50;99.90;;;;;;5031344;28;20449;-75
2021/12/30 08:15:39;;;;;;;26.73;25.53;;;13.50;99.90;;;;;;5031384;28;20935;-74
2021/12/30 08:18:06;;;;;;;25.83;24.83;;;13.50;99.90;;;;;;5031397;28;20437;-75
2021/12/30 08:20:33;;;;;;;23.33;22.43;;;13.50;99.90;;;;;;5031771;28;20455;-75
2021/12/30 08:23:00;;;;;;;24.90;24.00;;;13.60;99.90;;;;;;5031065;28;20441;-73
2021/12/30 08:25:26;;;;;;;25.33;24.33;;;13.60;99.90;;;;;;5030845;28;20493;-73
2021/12/30 08:27:55;;;;;;;24.17;23.20;;;13.70;99.90;;;;;;5030886;28;20492;-73
2021/12/30 08:30:23;;;;;;;24.00;23.10;;;13.70;99.90;;;;;;5030835;28;20820;-74
2021/12/30 08:32:50;;;;;;;24.20;23.20;;;13.70;99.90;;;;;;5030890;28;20520;-74
2021/12/30 08:35:20;;;;;;;24.23;23.30;;;13.70;99.90;;;;;;5030907;28;20457;-78
2021/12/30 08:37:49;;;;;;;23.60;22.70;;;13.80;99.90;;;;;;5030987;28;20943;-75
2021/12/30 08:40:17;;;;;;;22.90;22.10;;;13.80;99.90;;;;;;5030685;28;20843;-76
2021/12/30 08:42:44;;;;;;;23.60;22.70;;;13.90;99.90;;;;;;5030642;28;20858;-73
2021/12/30 08:45:12;;;;;;;22.60;21.80;;;13.90;99.90;;;;;;5030370;28;20939;-74
2021/12/30 08:47:39;;;;;;;21.83;21.03;;;13.90;99.90;;;;;;5030337;28;20488;-73
2021/12/30 08:50:09;;;;;;;21.30;20.50;;;14.00;99.90;;;;;;5030464;28;20465;-73
2021/12/30 08:52:36;;;;;;;20.60;19.87;;;14.00;99.90;;;;;;5030357;28;20456;-73
2021/12/30 08:55:05;;;;;;;19.97;19.27;;;14.00;99.90;;;;;;5030461;28;20807;-73
2021/12/30 08:57:32;;;;;;;20.50;19.80;;;14.00;99.90;;;;;;5030440;28;20484;-73
2021/12/30 09:00:00;;;;;;;19.50;18.80;;;14.00;99.90;;;;;;5030184;28;20894;-73
2021/12/30 09:02:28;;;;;;;18.40;17.70;;;14.10;99.90;;;;;;5030471;28;20449;-72
2021/12/30 09:04:54;;;;;;;16.80;16.20;;;14.10;99.90;;;;;;5030775;28;20453;-73
2021/12/30 09:07:22;;;;;;;16.90;16.40;;;14.20;99.90;;;;;;5039026;28;20509;-73
2021/12/30 09:09:50;;;;;;;15.47;14.97;;;14.50;99.90;;;;;;5040175;28;21019;-73
2021/12/30 09:12:18;;;;;;;16.03;15.17;;;14.70;99.90;;;;;;5038308;28;20452;-73
2021/12/30 09:14:45;;;;;;;14.87;14.37;;;14.90;99.90;;;;;;5038470;28;20440;-73
2021/12/30 09:17:11;;;;;;;14.33;13.93;;;15.20;99.90;;;;;;5038192;28;20461;-74
2021/12/30 09:19:39;;;;;;;13.90;13.50;;;15.40;99.90;;;;;;5037771;28;20789;-74
2021/12/30 09:22:06;;;;;;;13.70;13.30;;;15.60;99.90;;;;;;5038846;28;20444;-74
2021/12/30 09:24:33;;;;;;;13.40;13.00;;;15.80;99.90;;;;;;5040336;28;20467;-73
2021/12/30 09:27:00;;;;;;;136.77;36.33;;;16.00;99.90;;;;;;5038788;28;20535;-73
2021/12/30 09:29:26;;;;;;;15.00;13.63;;;16.20;99.90;;;;;;5038651;28;20448;-73
2021/12/30 09:31:53;;;;;;;13.10;12.50;;;16.50;99.90;;;;;;5040337;28;20816;-73
2021/12/30 09:34:21;;;;;;;13.20;12.80;;;16.70;99.90;;;;;;5039105;28;20445;-73
2021/12/30 09:36:49;;;;;;;12.63;12.23;;;16.80;99.90;;;;;;5038259;28;20467;-73
2021/12/30 09:39:17;;;;;;;12.80;12.40;;;17.00;99.90;;;;;;5039862;28;20440;-72
2021/12/30 09:41:48;;;;;;;13.13;12.63;;;17.10;99.90;;;;;;5039243;28;20445;-73
2021/12/30 09:44:17;;;;;;;12.83;12.33;;;17.20;99.90;;;;;;5038039;28;20481;-73
2021/12/30 09:46:45;;;;;;;12.60;12.20;;;17.20;99.90;;;;;;5046923;28;20490;-73
2021/12/30 09:49:17;;;;;;;12.47;12.07;;;17.10;99.90;;;;;;5040375;28;20489;-73
2021/12/30 09:51:44;;;;;;;12.87;12.47;;;16.80;99.90;;;;;;5038053;28;20457;-72
2021/12/30 09:54:12;;;;;;;12.97;12.57;;;16.80;99.90;;;;;;5038249;28;20459;-72
2021/12/30 09:56:39;;;;;;;12.20;11.80;;;16.80;99.90;;;;;;5031147;28;20882;-73
2021/12/30 09:59:06;;;;;;;12.30;11.90;;;16.70;99.90;;;;;;5036737;28;20437;-73
2021/12/30 10:01:35;;;;;;;12.33;11.90;;;16.80;99.90;;;;;;5037614;28;20448;-73
2021/12/30 10:04:04;;;;;;;12.20;11.80;;;17.00;99.90;;;;;;5037770;28;20449;-73
2021/12/30 10:06:32;;;;;;;12.60;12.10;;;17.10;99.90;;;;;;5037908;28;20444;-73
2021/12/30 10:09:01;;;;;;;12.50;12.10;;;17.50;99.90;;;;;;5039266;28;20509;-74
2021/12/30 10:11:29;;;;;;;12.00;11.60;;;17.80;99.90;;;;;;5040673;28;20441;-73
2021/12/30 10:13:59;;;;;;;12.40;12.00;;;18.00;99.90;;;;;;5044042;28;20462;-73
2021/12/30 10:17:15;;;;;;;12.70;12.30;;;17.80;99.90;;;;;;5053527;28;20463;-73
2021/12/30 10:19:42;;;;;;;12.77;12.37;;;17.70;99.90;;;;;;5023248;28;20453;-73
2021/12/30 10:22:11;;;;;;;12.50;12.10;;;17.50;99.90;;;;;;5029693;28;20475;-74
2021/12/30 10:25:22;;;;;;;12.80;12.23;;;17.40;99.90;;;;;;5043412;28;20467;-72
2021/12/30 10:27:50;;;;;;;12.47;12.07;;;17.70;99.90;;;;;;5025550;28;20479;-72
2021/12/30 10:30:29;;;;;;;12.90;12.50;;;18.00;99.90;;;;;;5053170;28;20459;-73
2021/12/30 10:33:10;;;;;;;12.50;12.10;;;18.20;99.90;;;;;;5052922;28;20439;-73
2021/12/30 10:35:37;;;;;;;12.30;11.90;;;18.40;99.90;;;;;;5052808;28;20505;-73
2021/12/30 10:38:09;;;;;;;12.97;12.47;;;18.80;99.90;;;;;;5053090;28;20456;-73
2021/12/30 10:40:37;;;;;;;11.57;11.27;;;19.40;99.90;;;;;;5052798;28;20452;-73
2021/12/30 10:43:23;;;;;;;12.20;11.80;;;19.80;99.90;;;;;;5053022;28;20452;-73
2021/12/30 10:46:12;;;;;;;12.10;11.70;;;20.60;99.90;;;;;;5052679;28;20455;-73
2021/12/30 10:48:49;;;;;;;11.87;11.57;;;21.00;99.90;;;;;;5044287;28;20483;-73
2021/12/30 10:51:18;;;;;;;12.50;12.10;;;20.50;99.90;;;;;;5052459;28;20448;-73
2021/12/30 10:53:46;;;;;;;12.63;12.20;;;20.10;99.90;;;;;;5052602;28;20459;-73
2021/12/30 10:56:28;;;;;;;12.03;11.63;;;19.70;99.90;;;;;;5052361;28;20688;-73
2021/12/30 10:59:18;;;;;;;12.53;12.13;;;19.20;99.90;;;;;;5052375;28;20447;-73
2021/12/30 11:01:47;;;;;;;12.37;11.77;;;18.80;99.90;;;;;;5052350;28;20459;-73
2021/12/30 11:04:14;;;;;;;13.10;12.60;;;18.60;99.90;;;;;;5052083;28;20968;-73
2021/12/30 11:06:41;;;;;;;12.40;12.00;;;18.50;99.90;;;;;;5052133;28;20483;-73
2021/12/30 11:09:14;;;;;;;12.13;11.73;;;18.90;99.90;;;;;;5051844;28;20494;-72
2021/12/30 11:11:45;;;;;;;12.20;11.80;;;19.00;99.90;;;;;;5051933;28;20456;-72
2021/12/30 11:14:15;;;;;;;12.27;11.87;;;19.50;99.90;;;;;;5052000;28;20455;-73
2021/12/30 11:17:06;;;;;;;12.67;12.27;;;20.50;99.90;;;;;;5052043;28;20456;-73
2021/12/30 11:19:35;;;;;;;12.13;11.73;;;21.50;99.90;;;;;;5052659;28;20543;-73
2021/12/30 11:22:04;;;;;;;12.70;12.20;;;21.50;99.90;;;;;;5051229;28;20456;-73
2021/12/30 11:24:32;;;;;;;12.63;12.23;;;21.70;99.90;;;;;;5052103;28;20480;-73
2021/12/30 11:27:00;;;;;;;11.90;11.53;;;22.30;99.90;;;;;;5052109;28;20480;-73
2021/12/30 11:29:28;;;;;;;13.03;12.53;;;21.90;99.90;;;;;;5052192;28;20443;-73
2021/12/30 11:31:55;;;;;;;11.73;11.33;;;21.70;99.90;;;;;;5052136;28;20459;-73
2021/12/30 11:34:23;;;;;;;12.43;12.03;;;21.00;99.90;;;;;;5052121;28;20498;-73
2021/12/30 11:36:50;;;;;;;11.80;11.43;;;20.50;99.90;;;;;;5052302;28;20502;-73
2021/12/30 11:39:20;;;;;;;11.73;11.43;;;20.10;99.90;;;;;;5052113;28;20484;-73
2021/12/30 11:41:54;;;;;;;11.10;10.80;;;19.70;99.90;;;;;;5052078;28;20506;-74
2021/12/30 11:44:37;;;;;;;11.83;11.43;;;19.50;99.90;;;;;;5052230;28;20448;-73
2021/12/30 11:47:05;;;;;;;11.80;11.50;;;19.50;99.90;;;;;;5051971;28;20487;-73
2021/12/30 11:49:53;;;;;;;12.10;11.23;;;19.50;99.90;;;;;;5052134;28;20444;-73
2021/12/30 11:52:46;;;;;;;12.10;11.60;;;19.70;99.90;;;;;;5051714;28;20484;-72
2021/12/30 11:55:47;;;;;;;11.40;11.00;;;19.80;99.90;;;;;;5049218;28;20460;-73
2021/12/30 11:58:50;;;;;;;12.03;11.60;;;20.20;99.90;;;;;;5051913;28;20490;-72
2021/12/30 12:01:38;;;;;;;12.30;11.90;;;20.40;99.90;;;;;;5042775;28;20443;-73
2021/12/30 12:04:09;;;;;;;11.83;11.43;;;20.20;99.90;;;;;;5039685;28;20440;-72
2021/12/30 12:06:39;;;;;;;11.60;11.20;;;20.10;99.90;;;;;;5040509;28;20441;-72
2021/12/30 12:09:09;;;;;;;11.90;11.50;;;20.20;99.90;;;;;;5042458;28;20933;-73
2021/12/30 12:11:46;;;;;;;10.87;10.57;;;20.10;99.90;;;;;;5041664;28;20763;-73
2021/12/30 12:14:15;;;;;;;11.77;11.37;;;20.20;99.90;;;;;;5041070;28;20455;-73
2021/12/30 12:16:53;;;;;;;11.40;11.10;;;19.90;99.90;;;;;;5040215;28;20437;-74
2021/12/30 12:19:22;;;;;;;11.73;11.43;;;19.90;99.90;;;;;;5040251;28;20483;-73
2021/12/30 12:21:50;;;;;;;11.70;11.30;;;20.10;99.90;;;;;;5040587;28;20449;-73
2021/12/30 12:24:33;;;;;;;11.73;11.33;;;20.40;99.90;;;;;;5040593;28;20452;-73
2021/12/30 12:27:02;;;;;;;12.40;12.00;;;21.30;99.90;;;;;;5040658;28;20477;-73
2021/12/30 12:29:30;;;;;;;12.50;12.00;;;22.10;99.90;;;;;;5040390;28;20937;-73
2021/12/30 12:32:03;;;;;;;12.07;11.67;;;22.10;99.90;;;;;;5040505;28;20472;-74
2021/12/30 12:34:42;;;;;;;12.03;11.63;;;21.80;99.90;;;;;;5039089;28;20453;-74
2021/12/30 12:37:52;;;;;;;12.37;11.97;;;21.60;99.90;;;;;;5039130;28;20441;-73
2021/12/30 12:40:26;;;;;;;12.40;12.00;;;21.20;99.90;;;;;;5040805;28;20495;-73